sensor_id;sensor_type;location;lat;lon;timestamp;temperature;humidity
35085;SHT85;21267;51.032;6.998;2024-02-26T00:02:17;7.62;77.49
35085;SHT85;21267;51.032;6.998;2024-02-26T00:04:44;7.61;77.62
35085;SHT85;21267;51.032;6.998;2024-02-26T00:07:11;7.62;76.98
35085;SHT85;21267;51.032;6.998;2024-02-26T00:09:38;7.61;77.69
35085;SHT85;21267;51.032;6.998;2024-02-26T00:12:05;7.59;77.49
35085;SHT85;21267;51.032;6.998;2024-02-26T00:14:32;7.58;78.10
35085;SHT85;21267;51.032;6.998;2024-02-26T00:16:59;7.48;78.66
35085;SHT85;21267;51.032;6.998;2024-02-26T00:19:26;7.41;79.11
35085;SHT85;21267;51.032;6.998;2024-02-26T00:21:53;7.50;78.43
35085;SHT85;21267;51.032;6.998;2024-02-26T00:24:22;7.52;78.68
35085;SHT85;21267;51.032;6.998;2024-02-26T00:26:49;7.38;79.85
35085;SHT85;21267;51.032;6.998;2024-02-26T00:29:20;7.32;80.33
35085;SHT85;21267;51.032;6.998;2024-02-26T00:31:48;7.25;80.47
35085;SHT85;21267;51.032;6.998;2024-02-26T00:34:15;7.25;81.44
35085;SHT85;21267;51.032;6.998;2024-02-26T00:36:42;7.28;81.07
35085;SHT85;21267;51.032;6.998;2024-02-26T00:39:09;7.25;81.17
35085;SHT85;21267;51.032;6.998;2024-02-26T00:41:39;7.31;80.76
35085;SHT85;21267;51.032;6.998;2024-02-26T00:44:06;7.34;80.71
35085;SHT85;21267;51.032;6.998;2024-02-26T00:46:33;7.41;80.63
35085;SHT85;21267;51.032;6.998;2024-02-26T00:49:00;7.45;80.26
35085;SHT85;21267;51.032;6.998;2024-02-26T00:51:28;7.47;80.50
35085;SHT85;21267;51.032;6.998;2024-02-26T00:53:55;7.48;80.14
35085;SHT85;21267;51.032;6.998;2024-02-26T00:56:22;7.47;80.51
35085;SHT85;21267;51.032;6.998;2024-02-26T01:01:38;7.51;80.32
35085;SHT85;21267;51.032;6.998;2024-02-26T01:04:08;7.56;80.40
35085;SHT85;21267;51.032;6.998;2024-02-26T01:06:35;7.54;80.47
35085;SHT85;21267;51.032;6.998;2024-02-26T01:09:03;7.51;80.46
35085;SHT85;21267;51.032;6.998;2024-02-26T01:11:30;7.55;80.29
35085;SHT85;21267;51.032;6.998;2024-02-26T01:13:57;7.48;80.90
35085;SHT85;21267;51.032;6.998;2024-02-26T01:16:25;7.50;80.92
35085;SHT85;21267;51.032;6.998;2024-02-26T01:18:51;7.38;81.21
35085;SHT85;21267;51.032;6.998;2024-02-26T01:21:18;7.30;81.88
35085;SHT85;21267;51.032;6.998;2024-02-26T01:23:45;7.18;82.50
35085;SHT85;21267;51.032;6.998;2024-02-26T01:26:12;7.13;83.59
35085;SHT85;21267;51.032;6.998;2024-02-26T01:28:40;7.11;83.75
35085;SHT85;21267;51.032;6.998;2024-02-26T01:31:06;7.03;84.22
35085;SHT85;21267;51.032;6.998;2024-02-26T01:33:36;7.01;83.97
35085;SHT85;21267;51.032;6.998;2024-02-26T01:36:03;6.94;84.95
35085;SHT85;21267;51.032;6.998;2024-02-26T01:38:30;6.97;84.71
35085;SHT85;21267;51.032;6.998;2024-02-26T01:40:57;6.97;84.82
35085;SHT85;21267;51.032;6.998;2024-02-26T01:43:24;6.94;84.88
35085;SHT85;21267;51.032;6.998;2024-02-26T01:45:51;6.97;85.20
35085;SHT85;21267;51.032;6.998;2024-02-26T01:48:18;7.00;85.21
35085;SHT85;21267;51.032;6.998;2024-02-26T01:50:45;6.94;85.32
35085;SHT85;21267;51.032;6.998;2024-02-26T01:53:12;6.89;86.03
35085;SHT85;21267;51.032;6.998;2024-02-26T01:55:39;6.92;85.73
35085;SHT85;21267;51.032;6.998;2024-02-26T01:58:07;6.83;86.31
35085;SHT85;21267;51.032;6.998;2024-02-26T02:00:36;6.84;86.26
35085;SHT85;21267;51.032;6.998;2024-02-26T02:03:04;6.86;86.25
35085;SHT85;21267;51.032;6.998;2024-02-26T02:05:32;6.76;86.84
35085;SHT85;21267;51.032;6.998;2024-02-26T02:08:00;6.77;86.76
35085;SHT85;21267;51.032;6.998;2024-02-26T02:10:27;6.69;87.36
35085;SHT85;21267;51.032;6.998;2024-02-26T02:12:54;6.76;87.20
35085;SHT85;21267;51.032;6.998;2024-02-26T02:15:21;6.68;87.35
35085;SHT85;21267;51.032;6.998;2024-02-26T02:17:48;6.68;87.42
35085;SHT85;21267;51.032;6.998;2024-02-26T02:20:16;6.69;87.47
35085;SHT85;21267;51.032;6.998;2024-02-26T02:22:46;6.63;87.75
35085;SHT85;21267;51.032;6.998;2024-02-26T02:25:13;6.62;87.90
35085;SHT85;21267;51.032;6.998;2024-02-26T02:27:41;6.59;88.16
35085;SHT85;21267;51.032;6.998;2024-02-26T02:30:10;6.61;88.17
35085;SHT85;21267;51.032;6.998;2024-02-26T02:32:39;6.62;88.09
35085;SHT85;21267;51.032;6.998;2024-02-26T02:35:08;6.59;88.25
35085;SHT85;21267;51.032;6.998;2024-02-26T02:37:35;6.63;88.13
35085;SHT85;21267;51.032;6.998;2024-02-26T02:40:04;6.59;88.48
35085;SHT85;21267;51.032;6.998;2024-02-26T02:42:31;6.71;88.23
35085;SHT85;21267;51.032;6.998;2024-02-26T02:44:58;6.68;87.87
35085;SHT85;21267;51.032;6.998;2024-02-26T02:47:26;6.63;88.00
35085;SHT85;21267;51.032;6.998;2024-02-26T02:49:53;6.71;88.01
35085;SHT85;21267;51.032;6.998;2024-02-26T02:52:20;6.72;88.03
35085;SHT85;21267;51.032;6.998;2024-02-26T02:54:46;6.69;88.11
35085;SHT85;21267;51.032;6.998;2024-02-26T02:57:13;6.65;88.17
35085;SHT85;21267;51.032;6.998;2024-02-26T03:03:17;6.68;88.52
35085;SHT85;21267;51.032;6.998;2024-02-26T03:05:44;6.69;88.52
35085;SHT85;21267;51.032;6.998;2024-02-26T03:08:11;6.69;88.67
35085;SHT85;21267;51.032;6.998;2024-02-26T03:10:38;6.75;88.68
35085;SHT85;21267;51.032;6.998;2024-02-26T03:13:05;6.66;88.41
35085;SHT85;21267;51.032;6.998;2024-02-26T03:15:31;6.68;88.50
35085;SHT85;21267;51.032;6.998;2024-02-26T03:17:59;6.62;88.69
35085;SHT85;21267;51.032;6.998;2024-02-26T03:20:26;6.61;89.23
35085;SHT85;21267;51.032;6.998;2024-02-26T03:22:52;6.62;88.85
35085;SHT85;21267;51.032;6.998;2024-02-26T03:25:20;6.72;88.88
35085;SHT85;21267;51.032;6.998;2024-02-26T03:27:46;6.57;89.49
35085;SHT85;21267;51.032;6.998;2024-02-26T03:30:13;6.59;89.29
35085;SHT85;21267;51.032;6.998;2024-02-26T03:32:40;6.62;89.43
35085;SHT85;21267;51.032;6.998;2024-02-26T03:35:08;6.63;89.57
35085;SHT85;21267;51.032;6.998;2024-02-26T03:37:35;6.57;89.65
35085;SHT85;21267;51.032;6.998;2024-02-26T03:40:01;6.55;89.93
35085;SHT85;21267;51.032;6.998;2024-02-26T03:42:29;6.55;89.83
35085;SHT85;21267;51.032;6.998;2024-02-26T03:44:57;6.57;89.49
35085;SHT85;21267;51.032;6.998;2024-02-26T03:47:23;6.63;89.28
35085;SHT85;21267;51.032;6.998;2024-02-26T03:49:50;6.57;89.66
35085;SHT85;21267;51.032;6.998;2024-02-26T03:52:17;6.61;89.63
35085;SHT85;21267;51.032;6.998;2024-02-26T03:54:44;6.59;90.04
35085;SHT85;21267;51.032;6.998;2024-02-26T03:57:11;6.59;90.06
35085;SHT85;21267;51.032;6.998;2024-02-26T03:59:38;6.55;90.16
35085;SHT85;21267;51.032;6.998;2024-02-26T04:02:06;6.52;90.43
35085;SHT85;21267;51.032;6.998;2024-02-26T04:04:35;6.55;90.59
35085;SHT85;21267;51.032;6.998;2024-02-26T04:07:02;6.52;90.15
35085;SHT85;21267;51.032;6.998;2024-02-26T04:09:31;6.49;90.47
35085;SHT85;21267;51.032;6.998;2024-02-26T04:11:58;6.49;90.29
35085;SHT85;21267;51.032;6.998;2024-02-26T04:14:25;6.50;90.33
35085;SHT85;21267;51.032;6.998;2024-02-26T04:16:52;6.49;90.57
35085;SHT85;21267;51.032;6.998;2024-02-26T04:19:21;6.50;90.75
35085;SHT85;21267;51.032;6.998;2024-02-26T04:21:48;6.53;90.58
35085;SHT85;21267;51.032;6.998;2024-02-26T04:24:15;6.52;90.75
35085;SHT85;21267;51.032;6.998;2024-02-26T04:26:42;6.53;90.68
35085;SHT85;21267;51.032;6.998;2024-02-26T04:29:09;6.50;91.02
35085;SHT85;21267;51.032;6.998;2024-02-26T04:31:37;6.57;90.75
35085;SHT85;21267;51.032;6.998;2024-02-26T04:34:04;6.52;90.96
35085;SHT85;21267;51.032;6.998;2024-02-26T04:36:31;6.52;90.85
35085;SHT85;21267;51.032;6.998;2024-02-26T04:38:58;6.49;90.85
35085;SHT85;21267;51.032;6.998;2024-02-26T04:41:25;6.50;91.30
35085;SHT85;21267;51.032;6.998;2024-02-26T04:43:51;6.55;91.45
35085;SHT85;21267;51.032;6.998;2024-02-26T04:46:18;6.48;91.97
35085;SHT85;21267;51.032;6.998;2024-02-26T04:48:45;6.39;92.44
35085;SHT85;21267;51.032;6.998;2024-02-26T04:51:13;6.36;92.50
35085;SHT85;21267;51.032;6.998;2024-02-26T04:53:40;6.35;93.04
35085;SHT85;21267;51.032;6.998;2024-02-26T04:56:07;6.32;93.15
35085;SHT85;21267;51.032;6.998;2024-02-26T04:58:34;6.35;92.50
35085;SHT85;21267;51.032;6.998;2024-02-26T05:01:00;6.32;93.13
35085;SHT85;21267;51.032;6.998;2024-02-26T05:03:27;6.32;93.14
35085;SHT85;21267;51.032;6.998;2024-02-26T05:05:54;6.31;93.11
35085;SHT85;21267;51.032;6.998;2024-02-26T05:08:24;6.24;93.59
35085;SHT85;21267;51.032;6.998;2024-02-26T05:10:50;6.22;94.02
35085;SHT85;21267;51.032;6.998;2024-02-26T05:13:17;6.21;94.29
35085;SHT85;21267;51.032;6.998;2024-02-26T05:15:44;6.18;94.48
35085;SHT85;21267;51.032;6.998;2024-02-26T05:18:13;6.18;94.48
35085;SHT85;21267;51.032;6.998;2024-02-26T05:20:40;6.24;94.42
35085;SHT85;21267;51.032;6.998;2024-02-26T05:23:07;6.18;94.51
35085;SHT85;21267;51.032;6.998;2024-02-26T05:25:34;6.21;94.69
35085;SHT85;21267;51.032;6.998;2024-02-26T05:28:01;6.17;94.79
35085;SHT85;21267;51.032;6.998;2024-02-26T05:30:28;6.26;94.78
35085;SHT85;21267;51.032;6.998;2024-02-26T05:32:55;6.21;94.86
35085;SHT85;21267;51.032;6.998;2024-02-26T05:35:22;6.24;94.90
35085;SHT85;21267;51.032;6.998;2024-02-26T05:37:49;6.18;94.99
35085;SHT85;21267;51.032;6.998;2024-02-26T05:40:16;6.20;94.98
35085;SHT85;21267;51.032;6.998;2024-02-26T05:42:43;6.17;95.05
35085;SHT85;21267;51.032;6.998;2024-02-26T05:45:11;6.17;95.07
35085;SHT85;21267;51.032;6.998;2024-02-26T05:47:38;6.22;95.08
35085;SHT85;21267;51.032;6.998;2024-02-26T05:50:11;6.20;95.06
35085;SHT85;21267;51.032;6.998;2024-02-26T05:52:39;6.17;95.24
35085;SHT85;21267;51.032;6.998;2024-02-26T05:55:07;6.17;95.25
35085;SHT85;21267;51.032;6.998;2024-02-26T05:57:34;6.18;95.15
35085;SHT85;21267;51.032;6.998;2024-02-26T06:00:01;6.21;95.31
35085;SHT85;21267;51.032;6.998;2024-02-26T06:02:31;6.17;95.45
35085;SHT85;21267;51.032;6.998;2024-02-26T06:04:58;6.21;95.49
35085;SHT85;21267;51.032;6.998;2024-02-26T06:07:25;6.20;95.52
35085;SHT85;21267;51.032;6.998;2024-02-26T06:09:52;6.24;95.20
35085;SHT85;21267;51.032;6.998;2024-02-26T06:12:19;6.21;95.27
35085;SHT85;21267;51.032;6.998;2024-02-26T06:14:46;6.20;95.17
35085;SHT85;21267;51.032;6.998;2024-02-26T06:17:13;6.21;95.25
35085;SHT85;21267;51.032;6.998;2024-02-26T06:19:40;6.14;95.30
35085;SHT85;21267;51.032;6.998;2024-02-26T06:22:11;6.18;95.39
35085;SHT85;21267;51.032;6.998;2024-02-26T06:24:39;6.18;95.33
35085;SHT85;21267;51.032;6.998;2024-02-26T06:27:05;6.48;95.33
35085;SHT85;21267;51.032;6.998;2024-02-26T06:29:32;6.42;94.87
35085;SHT85;21267;51.032;6.998;2024-02-26T06:31:59;6.41;94.75
35085;SHT85;21267;51.032;6.998;2024-02-26T06:34:26;6.49;94.97
35085;SHT85;21267;51.032;6.998;2024-02-26T06:36:53;6.63;94.74
35085;SHT85;21267;51.032;6.998;2024-02-26T06:39:20;6.29;94.69
35085;SHT85;21267;51.032;6.998;2024-02-26T06:41:47;6.45;95.01
35085;SHT85;21267;51.032;6.998;2024-02-26T06:44:14;6.52;94.98
35085;SHT85;21267;51.032;6.998;2024-02-26T06:46:41;6.24;95.17
35085;SHT85;21267;51.032;6.998;2024-02-26T06:49:08;6.36;95.08
35085;SHT85;21267;51.032;6.998;2024-02-26T06:51:35;6.22;95.09
35085;SHT85;21267;51.032;6.998;2024-02-26T06:54:01;6.26;95.23
35085;SHT85;21267;51.032;6.998;2024-02-26T06:56:31;6.26;95.10
35085;SHT85;21267;51.032;6.998;2024-02-26T06:58:58;6.31;95.16
35085;SHT85;21267;51.032;6.998;2024-02-26T07:01:25;6.24;94.99
35085;SHT85;21267;51.032;6.998;2024-02-26T07:03:52;6.25;95.06
35085;SHT85;21267;51.032;6.998;2024-02-26T07:06:19;6.21;95.11
35085;SHT85;21267;51.032;6.998;2024-02-26T07:08:46;6.24;95.19
35085;SHT85;21267;51.032;6.998;2024-02-26T07:11:13;6.34;94.90
35085;SHT85;21267;51.032;6.998;2024-02-26T07:13:40;6.17;94.82
35085;SHT85;21267;51.032;6.998;2024-02-26T07:16:09;6.41;94.83
35085;SHT85;21267;51.032;6.998;2024-02-26T07:18:37;6.31;94.47
35085;SHT85;21267;51.032;6.998;2024-02-26T07:21:04;6.36;93.79
35085;SHT85;21267;51.032;6.998;2024-02-26T07:23:31;6.28;94.20
35085;SHT85;21267;51.032;6.998;2024-02-26T07:25:59;6.21;94.16
35085;SHT85;21267;51.032;6.998;2024-02-26T07:28:26;6.35;94.24
35085;SHT85;21267;51.032;6.998;2024-02-26T07:33:38;6.13;94.61
35085;SHT85;21267;51.032;6.998;2024-02-26T07:36:05;6.10;94.20
35085;SHT85;21267;51.032;6.998;2024-02-26T07:38:32;6.17;94.12
35085;SHT85;21267;51.032;6.998;2024-02-26T07:41:09;6.21;93.95
35085;SHT85;21267;51.032;6.998;2024-02-26T07:43:36;6.26;93.68
35085;SHT85;21267;51.032;6.998;2024-02-26T07:46:03;6.22;93.64
35085;SHT85;21267;51.032;6.998;2024-02-26T07:48:30;6.28;93.67
35085;SHT85;21267;51.032;6.998;2024-02-26T07:50:57;6.31;93.57
35085;SHT85;21267;51.032;6.998;2024-02-26T07:53:26;6.20;93.46
35085;SHT85;21267;51.032;6.998;2024-02-26T07:55:52;6.17;93.67
35085;SHT85;21267;51.032;6.998;2024-02-26T07:58:19;6.20;93.58
35085;SHT85;21267;51.032;6.998;2024-02-26T08:00:46;6.15;93.82
35085;SHT85;21267;51.032;6.998;2024-02-26T08:03:13;6.20;93.96
35085;SHT85;21267;51.032;6.998;2024-02-26T08:05:42;6.21;94.00
35085;SHT85;21267;51.032;6.998;2024-02-26T08:08:10;6.11;94.26
35085;SHT85;21267;51.032;6.998;2024-02-26T08:10:37;6.20;94.38
35085;SHT85;21267;51.032;6.998;2024-02-26T08:13:04;6.14;94.20
35085;SHT85;21267;51.032;6.998;2024-02-26T08:15:34;6.21;94.13
35085;SHT85;21267;51.032;6.998;2024-02-26T08:18:01;6.10;93.80
35085;SHT85;21267;51.032;6.998;2024-02-26T08:20:32;6.08;94.09
35085;SHT85;21267;51.032;6.998;2024-02-26T08:22:59;6.13;94.59
35085;SHT85;21267;51.032;6.998;2024-02-26T08:25:25;6.21;94.50
35085;SHT85;21267;51.032;6.998;2024-02-26T08:27:53;6.11;94.48
35085;SHT85;21267;51.032;6.998;2024-02-26T08:30:20;6.14;94.32
35085;SHT85;21267;51.032;6.998;2024-02-26T08:32:47;6.17;94.72
35085;SHT85;21267;51.032;6.998;2024-02-26T08:35:18;6.20;94.86
35085;SHT85;21267;51.032;6.998;2024-02-26T08:37:45;6.28;94.56
35085;SHT85;21267;51.032;6.998;2024-02-26T08:40:13;6.18;94.48
35085;SHT85;21267;51.032;6.998;2024-02-26T08:42:40;6.22;94.96
35085;SHT85;21267;51.032;6.998;2024-02-26T08:45:08;6.21;94.74
35085;SHT85;21267;51.032;6.998;2024-02-26T08:47:35;6.11;94.69
35085;SHT85;21267;51.032;6.998;2024-02-26T08:50:02;6.18;94.54
35085;SHT85;21267;51.032;6.998;2024-02-26T08:52:30;6.28;94.59
35085;SHT85;21267;51.032;6.998;2024-02-26T08:54:56;6.28;94.79
35085;SHT85;21267;51.032;6.998;2024-02-26T08:57:24;6.25;94.67
35085;SHT85;21267;51.032;6.998;2024-02-26T08:59:54;6.15;94.55
35085;SHT85;21267;51.032;6.998;2024-02-26T09:02:21;6.21;94.51
35085;SHT85;21267;51.032;6.998;2024-02-26T09:04:48;6.21;94.63
35085;SHT85;21267;51.032;6.998;2024-02-26T09:07:14;6.44;94.42
35085;SHT85;21267;51.032;6.998;2024-02-26T09:09:41;6.28;94.23
35085;SHT85;21267;51.032;6.998;2024-02-26T09:12:08;6.34;94.19
35085;SHT85;21267;51.032;6.998;2024-02-26T09:14:36;6.35;94.45
35085;SHT85;21267;51.032;6.998;2024-02-26T09:17:02;6.35;93.56
35085;SHT85;21267;51.032;6.998;2024-02-26T09:19:30;6.25;93.37
35085;SHT85;21267;51.032;6.998;2024-02-26T09:21:57;6.29;93.53
35085;SHT85;21267;51.032;6.998;2024-02-26T09:24:25;6.28;93.78
35085;SHT85;21267;51.032;6.998;2024-02-26T09:26:53;6.26;93.92
35085;SHT85;21267;51.032;6.998;2024-02-26T09:29:20;6.17;95.02
35085;SHT85;21267;51.032;6.998;2024-02-26T09:31:47;6.20;95.50
35085;SHT85;21267;51.032;6.998;2024-02-26T09:34:14;6.28;94.95
35085;SHT85;21267;51.032;6.998;2024-02-26T09:36:41;6.29;93.32
35085;SHT85;21267;51.032;6.998;2024-02-26T09:39:08;6.22;93.11
35085;SHT85;21267;51.032;6.998;2024-02-26T09:41:38;6.25;93.68
35085;SHT85;21267;51.032;6.998;2024-02-26T09:44:06;6.17;93.76
35085;SHT85;21267;51.032;6.998;2024-02-26T09:46:33;6.22;93.87
35085;SHT85;21267;51.032;6.998;2024-02-26T09:49:00;6.36;93.67
35085;SHT85;21267;51.032;6.998;2024-02-26T09:51:28;6.26;93.40
35085;SHT85;21267;51.032;6.998;2024-02-26T09:53:59;6.26;93.61
35085;SHT85;21267;51.032;6.998;2024-02-26T09:56:28;6.29;93.94
35085;SHT85;21267;51.032;6.998;2024-02-26T09:58:57;6.35;93.71
35085;SHT85;21267;51.032;6.998;2024-02-26T10:01:25;6.36;93.62
35085;SHT85;21267;51.032;6.998;2024-02-26T10:03:55;6.42;93.88
35085;SHT85;21267;51.032;6.998;2024-02-26T10:06:28;6.31;93.71
35085;SHT85;21267;51.032;6.998;2024-02-26T10:08:56;6.41;94.25
35085;SHT85;21267;51.032;6.998;2024-02-26T10:11:26;6.29;93.82
35085;SHT85;21267;51.032;6.998;2024-02-26T10:13:54;6.41;93.47
35085;SHT85;21267;51.032;6.998;2024-02-26T10:16:20;6.46;93.64
35085;SHT85;21267;51.032;6.998;2024-02-26T10:18:48;6.39;93.75
35085;SHT85;21267;51.032;6.998;2024-02-26T10:21:19;6.53;93.65
35085;SHT85;21267;51.032;6.998;2024-02-26T10:23:46;6.41;93.51
35085;SHT85;21267;51.032;6.998;2024-02-26T10:26:17;6.50;93.94
35085;SHT85;21267;51.032;6.998;2024-02-26T10:28:45;6.59;93.74
35085;SHT85;21267;51.032;6.998;2024-02-26T10:31:14;6.52;93.39
35085;SHT85;21267;51.032;6.998;2024-02-26T10:33:43;6.63;93.60
35085;SHT85;21267;51.032;6.998;2024-02-26T10:36:10;6.41;93.10
35085;SHT85;21267;51.032;6.998;2024-02-26T10:38:37;6.49;92.87
35085;SHT85;21267;51.032;6.998;2024-02-26T10:41:06;6.46;93.38
35085;SHT85;21267;51.032;6.998;2024-02-26T10:43:33;6.48;93.34
35085;SHT85;21267;51.032;6.998;2024-02-26T10:46:00;6.61;93.91
35085;SHT85;21267;51.032;6.998;2024-02-26T10:48:27;6.62;93.74
35085;SHT85;21267;51.032;6.998;2024-02-26T10:50:54;6.72;93.62
35085;SHT85;21267;51.032;6.998;2024-02-26T10:53:23;6.76;93.49
35085;SHT85;21267;51.032;6.998;2024-02-26T10:56:01;6.71;93.39
35085;SHT85;21267;51.032;6.998;2024-02-26T10:58:28;6.71;93.34
35085;SHT85;21267;51.032;6.998;2024-02-26T11:00:57;6.83;93.37
35085;SHT85;21267;51.032;6.998;2024-02-26T11:03:24;6.86;93.37
35085;SHT85;21267;51.032;6.998;2024-02-26T11:05:52;6.93;93.39
35085;SHT85;21267;51.032;6.998;2024-02-26T11:08:20;7.08;93.67
35085;SHT85;21267;51.032;6.998;2024-02-26T11:10:53;7.00;93.40
35085;SHT85;21267;51.032;6.998;2024-02-26T11:13:21;7.08;93.30
35085;SHT85;21267;51.032;6.998;2024-02-26T11:15:54;7.04;92.99
35085;SHT85;21267;51.032;6.998;2024-02-26T11:18:22;7.11;93.26
35085;SHT85;21267;51.032;6.998;2024-02-26T11:20:51;7.17;93.03
35085;SHT85;21267;51.032;6.998;2024-02-26T11:23:18;6.96;93.34
35085;SHT85;21267;51.032;6.998;2024-02-26T11:25:45;7.00;93.85
35085;SHT85;21267;51.032;6.998;2024-02-26T11:28:15;7.04;93.29
35085;SHT85;21267;51.032;6.998;2024-02-26T11:30:47;7.14;93.12
35085;SHT85;21267;51.032;6.998;2024-02-26T11:33:15;7.10;93.08
35085;SHT85;21267;51.032;6.998;2024-02-26T11:35:43;7.31;92.80
35085;SHT85;21267;51.032;6.998;2024-02-26T11:38:16;7.17;92.53
35085;SHT85;21267;51.032;6.998;2024-02-26T11:40:44;7.20;92.67
35085;SHT85;21267;51.032;6.998;2024-02-26T11:43:12;7.35;92.78
35085;SHT85;21267;51.032;6.998;2024-02-26T11:48:16;7.45;92.61
35085;SHT85;21267;51.032;6.998;2024-02-26T11:50:52;7.30;92.52
35085;SHT85;21267;51.032;6.998;2024-02-26T11:59:03;7.45;92.98
35085;SHT85;21267;51.032;6.998;2024-02-26T12:04:13;7.65;92.66
35085;SHT85;21267;51.032;6.998;2024-02-26T12:06:51;7.65;92.49
35085;SHT85;21267;51.032;6.998;2024-02-26T12:12:10;7.54;93.12
35085;SHT85;21267;51.032;6.998;2024-02-26T12:14:55;7.62;93.23
35085;SHT85;21267;51.032;6.998;2024-02-26T12:17:23;7.45;92.84
35085;SHT85;21267;51.032;6.998;2024-02-26T12:19:54;7.68;92.61
35085;SHT85;21267;51.032;6.998;2024-02-26T12:22:23;7.78;92.83
35085;SHT85;21267;51.032;6.998;2024-02-26T12:25:00;7.97;92.41
35085;SHT85;21267;51.032;6.998;2024-02-26T12:27:30;7.83;92.43
35085;SHT85;21267;51.032;6.998;2024-02-26T12:29:57;7.81;92.47
35085;SHT85;21267;51.032;6.998;2024-02-26T12:32:24;7.87;92.14
35085;SHT85;21267;51.032;6.998;2024-02-26T12:34:51;7.85;91.59
35085;SHT85;21267;51.032;6.998;2024-02-26T12:37:18;7.92;92.22
35085;SHT85;21267;51.032;6.998;2024-02-26T12:39:45;7.87;92.62
35085;SHT85;21267;51.032;6.998;2024-02-26T12:42:14;7.90;92.03
35085;SHT85;21267;51.032;6.998;2024-02-26T12:44:41;7.89;92.50
35085;SHT85;21267;51.032;6.998;2024-02-26T12:47:09;8.09;91.90
35085;SHT85;21267;51.032;6.998;2024-02-26T12:49:37;7.85;91.43
35085;SHT85;21267;51.032;6.998;2024-02-26T12:52:05;7.94;90.94
35085;SHT85;21267;51.032;6.998;2024-02-26T12:54:33;8.03;91.04
35085;SHT85;21267;51.032;6.998;2024-02-26T12:57:03;7.90;90.71
35085;SHT85;21267;51.032;6.998;2024-02-26T12:59:31;8.04;91.46
35085;SHT85;21267;51.032;6.998;2024-02-26T13:01:58;7.87;91.53
35085;SHT85;21267;51.032;6.998;2024-02-26T13:04:28;7.94;91.30
35085;SHT85;21267;51.032;6.998;2024-02-26T13:06:56;7.92;92.11
35085;SHT85;21267;51.032;6.998;2024-02-26T13:09:34;7.97;91.20
35085;SHT85;21267;51.032;6.998;2024-02-26T13:12:05;8.10;92.10
35085;SHT85;21267;51.032;6.998;2024-02-26T13:14:33;7.87;91.47
35085;SHT85;21267;51.032;6.998;2024-02-26T13:17:03;8.20;91.48
35085;SHT85;21267;51.032;6.998;2024-02-26T13:19:30;8.30;91.21
35085;SHT85;21267;51.032;6.998;2024-02-26T13:22:05;8.22;90.46
35085;SHT85;21267;51.032;6.998;2024-02-26T13:24:34;8.41;90.28
35085;SHT85;21267;51.032;6.998;2024-02-26T13:27:01;8.17;90.19
35085;SHT85;21267;51.032;6.998;2024-02-26T13:29:31;8.38;90.75
35085;SHT85;21267;51.032;6.998;2024-02-26T13:32:00;8.37;90.33
35085;SHT85;21267;51.032;6.998;2024-02-26T13:34:28;8.36;90.40
35085;SHT85;21267;51.032;6.998;2024-02-26T13:36:58;8.20;90.49
35085;SHT85;21267;51.032;6.998;2024-02-26T13:39:25;8.36;90.36
35085;SHT85;21267;51.032;6.998;2024-02-26T13:41:53;8.45;89.99
35085;SHT85;21267;51.032;6.998;2024-02-26T13:44:21;8.40;90.47
35085;SHT85;21267;51.032;6.998;2024-02-26T13:46:50;8.44;90.38
35085;SHT85;21267;51.032;6.998;2024-02-26T13:49:17;8.37;90.26
35085;SHT85;21267;51.032;6.998;2024-02-26T13:51:44;8.34;90.59
35085;SHT85;21267;51.032;6.998;2024-02-26T13:54:11;8.62;90.61
35085;SHT85;21267;51.032;6.998;2024-02-26T13:56:38;8.47;90.04
35085;SHT85;21267;51.032;6.998;2024-02-26T13:59:05;8.16;90.13
35085;SHT85;21267;51.032;6.998;2024-02-26T14:01:32;8.19;90.01
35085;SHT85;21267;51.032;6.998;2024-02-26T14:04:00;8.58;90.20
35085;SHT85;21267;51.032;6.998;2024-02-26T14:06:29;8.62;89.45
35085;SHT85;21267;51.032;6.998;2024-02-26T14:08:58;8.50;89.62
35085;SHT85;21267;51.032;6.998;2024-02-26T14:11:25;8.37;90.44
35085;SHT85;21267;51.032;6.998;2024-02-26T14:13:53;8.34;89.98
35085;SHT85;21267;51.032;6.998;2024-02-26T14:16:19;8.48;89.19
35085;SHT85;21267;51.032;6.998;2024-02-26T14:18:47;8.50;89.05
35085;SHT85;21267;51.032;6.998;2024-02-26T14:21:14;8.57;88.40
35085;SHT85;21267;51.032;6.998;2024-02-26T14:23:41;8.75;88.36
35085;SHT85;21267;51.032;6.998;2024-02-26T14:26:11;8.71;89.01
35085;SHT85;21267;51.032;6.998;2024-02-26T14:28:38;8.53;88.30
35085;SHT85;21267;51.032;6.998;2024-02-26T14:31:06;8.79;88.55
35085;SHT85;21267;51.032;6.998;2024-02-26T14:33:34;8.44;88.36
35085;SHT85;21267;51.032;6.998;2024-02-26T14:36:01;8.33;88.13
35085;SHT85;21267;51.032;6.998;2024-02-26T14:38:28;8.50;86.99
35085;SHT85;21267;51.032;6.998;2024-02-26T14:40:55;8.71;87.67
35085;SHT85;21267;51.032;6.998;2024-02-26T14:43:22;8.72;88.33
35085;SHT85;21267;51.032;6.998;2024-02-26T14:45:49;8.82;87.60
35085;SHT85;21267;51.032;6.998;2024-02-26T14:48:15;8.95;87.64
35085;SHT85;21267;51.032;6.998;2024-02-26T14:50:42;8.78;87.34
35085;SHT85;21267;51.032;6.998;2024-02-26T14:53:09;8.95;86.79
35085;SHT85;21267;51.032;6.998;2024-02-26T14:55:36;9.02;86.98
35085;SHT85;21267;51.032;6.998;2024-02-26T14:58:07;9.02;87.70
35085;SHT85;21267;51.032;6.998;2024-02-26T15:00:33;9.03;87.28
35085;SHT85;21267;51.032;6.998;2024-02-26T15:03:02;8.85;87.48
35085;SHT85;21267;51.032;6.998;2024-02-26T15:05:29;8.96;87.42
35085;SHT85;21267;51.032;6.998;2024-02-26T15:07:56;8.92;88.08
35085;SHT85;21267;51.032;6.998;2024-02-26T15:10:23;9.01;88.00
35085;SHT85;21267;51.032;6.998;2024-02-26T15:12:50;8.96;88.68
35085;SHT85;21267;51.032;6.998;2024-02-26T15:15:21;8.92;88.88
35085;SHT85;21267;51.032;6.998;2024-02-26T15:17:48;8.86;89.12
35085;SHT85;21267;51.032;6.998;2024-02-26T15:20:16;8.86;89.30
35085;SHT85;21267;51.032;6.998;2024-02-26T15:22:43;8.85;89.97
35085;SHT85;21267;51.032;6.998;2024-02-26T15:25:10;8.85;90.12
35085;SHT85;21267;51.032;6.998;2024-02-26T15:27:41;8.85;90.02
35085;SHT85;21267;51.032;6.998;2024-02-26T15:30:08;8.67;90.35
35085;SHT85;21267;51.032;6.998;2024-02-26T15:32:35;8.60;90.51
35085;SHT85;21267;51.032;6.998;2024-02-26T15:35:02;8.71;90.52
35085;SHT85;21267;51.032;6.998;2024-02-26T15:37:29;8.65;90.21
35085;SHT85;21267;51.032;6.998;2024-02-26T15:39:56;8.67;90.22
35085;SHT85;21267;51.032;6.998;2024-02-26T15:42:23;8.60;90.39
35085;SHT85;21267;51.032;6.998;2024-02-26T15:44:52;8.51;90.50
35085;SHT85;21267;51.032;6.998;2024-02-26T15:47:18;8.45;90.40
35085;SHT85;21267;51.032;6.998;2024-02-26T15:49:45;8.53;90.56
35085;SHT85;21267;51.032;6.998;2024-02-26T15:52:12;8.54;90.55
35085;SHT85;21267;51.032;6.998;2024-02-26T15:54:40;8.53;90.48
35085;SHT85;21267;51.032;6.998;2024-02-26T15:57:07;8.60;90.61
35085;SHT85;21267;51.032;6.998;2024-02-26T15:59:37;8.58;89.82
35085;SHT85;21267;51.032;6.998;2024-02-26T16:02:04;8.53;89.52
35085;SHT85;21267;51.032;6.998;2024-02-26T16:04:31;8.57;90.20
35085;SHT85;21267;51.032;6.998;2024-02-26T16:07:02;8.61;89.96
35085;SHT85;21267;51.032;6.998;2024-02-26T16:09:31;8.48;90.01
35085;SHT85;21267;51.032;6.998;2024-02-26T16:12:03;8.54;90.10